CheckWX is a tool to help pilots better visualize weather data.  It is not intended as a substitute for an official pre-flight weather briefing.

21:49:44 UTC

KMIV METAR
Millville Municipal Airport
Millville, New Jersey, USA
Current

56 mins ago

KMIV 232054Z AUTO 09005KT 7SM -RA SCT080 OVC090 04/01 A3034 RMK AO2 RAB29 SLP274 P0000 60000 T00440006 56024 TSNO
Observed
Feb-23 @ 20:54 UTC
Wind
  • 090° at 5 KTS
Visibility
7 SM
Flight Rules
VFR
Conditions
Light Rain
Cloud Levels
  • Scattered at 8,000' AGL
  • Overcast at 9,000' AGL
Temperature
C / 39°F
Dewpoint
C / 34°F
Humidity
81%
Altimeter
30.34" Hg
Pressure
1027.4 hPa
Current Rain
0.01"
Previous

2 hours ago

KMIV 231954Z AUTO 07005KT 10SM OVC090 05/M01 A3036 RMK AO2 SLP280 T00501006 TSNO
Observed
Feb-23 @ 19:54 UTC
Wind
  • 070° at 5 KTS
Visibility
10 SM
Flight Rules
VFR
Cloud Levels
  • Overcast at 9,000' AGL
Temperature
C / 41°F
Dewpoint
-1°C / 30°F
Humidity
66%
Altimeter
30.36" Hg
Pressure
1028 hPa
Previous

3 hours ago

KMIV 231854Z AUTO 12007KT 10SM OVC110 05/M01 A3037 RMK AO2 SLP284 T00501006 TSNO
Observed
Feb-23 @ 18:54 UTC
Wind
  • 120° at 7 KTS
Visibility
10 SM
Flight Rules
VFR
Cloud Levels
  • Overcast at 11,000' AGL
Temperature
C / 41°F
Dewpoint
-1°C / 30°F
Humidity
66%
Altimeter
30.37" Hg
Pressure
1028.4 hPa